Time;durP1;ratioP1;P1;durP2;ratioP2;P2;SDS_P1;SDS_P2;PMS_P1;PMS_P2;Temp;Humidity;BMP_temperature;BMP_pressure;BME280_temperature;BME280_humidity;BME280_pressure;Samples;Min_cycle;Max_cycle;Signal;HPM_P1;HPM_P2
2021/10/17 00:00:33;;;;;;;33.37;18.30;;;9.10;91.90;;;9.31;66.88;97986.16;5025351;28;20076;-54
2021/10/17 00:03:01;;;;;;;31.43;17.10;;;9.10;92.40;;;9.33;66.85;97979.69;5025653;28;20059;-51
2021/10/17 00:05:32;;;;;;;31.13;16.87;;;9.10;92.70;;;9.34;66.92;97981.34;5025824;28;20373;-52
2021/10/17 00:08:02;;;;;;;39.40;16.60;;;9.20;93.30;;;9.35;67.20;97977.72;5024335;28;20055;-49
2021/10/17 00:10:33;;;;;;;36.33;17.23;;;9.10;93.60;;;9.34;67.21;97976.03;5025545;28;20211;-53
2021/10/17 00:13:04;;;;;;;25.03;14.47;;;9.10;94.10;;;9.31;67.43;97970.22;5024019;28;20053;-53
2021/10/17 00:15:34;;;;;;;28.60;16.17;;;9.10;94.30;;;9.30;67.39;97977.31;5024487;28;20069;-51
2021/10/17 00:18:06;;;;;;;29.90;15.57;;;9.10;94.70;;;9.30;67.44;97987.13;5025462;28;20059;-52
2021/10/17 00:20:35;;;;;;;29.80;15.27;;;9.00;94.60;;;9.25;67.77;97988.38;5026398;28;20379;-53
2021/10/17 00:23:03;;;;;;;28.23;13.80;;;9.00;94.80;;;9.22;67.80;97982.53;5025436;28;20061;-54
2021/10/17 00:25:31;;;;;;;23.27;13.03;;;8.90;94.70;;;9.13;67.65;97980.72;5026093;28;20053;-49
2021/10/17 00:27:59;;;;;;;24.07;12.50;;;8.70;94.60;;;9.03;67.59;97978.09;5024493;28;20276;-52
2021/10/17 00:30:34;;;;;;;19.43;13.77;;;8.60;94.70;;;8.97;67.48;97982.16;5040611;28;20352;-52
2021/10/17 00:33:02;;;;;;;20.70;14.47;;;8.50;95.10;;;8.90;67.64;97973.09;5024060;28;20045;-49
2021/10/17 00:35:31;;;;;;;20.23;13.73;;;8.40;94.90;;;8.80;67.46;97969.59;5025361;28;20053;-52
2021/10/17 00:37:59;;;;;;;17.50;13.77;;;8.30;95.00;;;8.75;67.49;97974.53;5026319;28;20065;-51
2021/10/17 00:40:27;;;;;;;17.83;11.60;;;8.20;95.00;;;8.68;67.61;97976.88;5021565;28;20072;-52
2021/10/17 00:42:58;;;;;;;18.50;12.73;;;8.20;94.70;;;8.57;67.30;97977.91;5023631;28;20371;-51
2021/10/17 00:45:30;;;;;;;18.40;11.10;;;8.00;94.70;;;8.49;67.60;97972.41;5025592;28;20053;-51
2021/10/17 00:47:59;;;;;;;14.70;11.20;;;7.90;95.00;;;8.43;67.50;97975.63;5023796;28;20053;-53
2021/10/17 00:50:27;;;;;;;15.87;10.90;;;7.90;94.90;;;8.36;67.38;97972.69;5024915;28;20049;-51
2021/10/17 00:52:55;;;;;;;17.27;11.37;;;7.80;94.60;;;8.28;67.43;97965.41;5025015;28;20229;-52
2021/10/17 00:55:24;;;;;;;17.07;11.77;;;7.80;94.50;;;8.25;67.16;97962.22;5040630;28;20061;-51
2021/10/17 00:57:52;;;;;;;19.03;12.90;;;7.70;94.60;;;8.21;67.43;97961.63;5024667;28;20051;-54
2021/10/17 01:00:20;;;;;;;23.57;14.40;;;7.70;94.90;;;8.20;67.52;97959.13;5024900;28;20056;-52
2021/10/17 01:02:48;;;;;;;27.27;15.30;;;7.70;95.10;;;8.16;67.93;97957.72;5027712;28;20068;-51
2021/10/17 01:05:18;;;;;;;32.40;15.90;;;7.70;96.10;;;8.16;67.75;97952.41;5026996;28;20061;-52
2021/10/17 01:07:47;;;;;;;30.43;17.27;;;7.70;96.40;;;8.21;68.37;97950.19;5027690;28;20053;-51
2021/10/17 01:10:18;;;;;;;30.63;17.60;;;7.80;96.60;;;8.27;68.60;97952.28;5029347;28;20063;-53
2021/10/17 01:12:49;;;;;;;31.33;16.23;;;8.00;96.60;;;8.35;68.69;97954.25;5026546;28;20063;-51
2021/10/17 01:15:19;;;;;;;46.87;18.10;;;8.10;96.50;;;8.41;68.91;97951.03;5027107;28;20160;-51
2021/10/17 01:17:51;;;;;;;29.03;14.63;;;8.20;96.30;;;8.45;68.46;97949.81;5027709;28;20063;-50
2021/10/17 01:20:20;;;;;;;37.63;16.17;;;8.20;96.40;;;8.44;68.53;97950.78;5027644;28;20049;-49
2021/10/17 01:22:50;;;;;;;31.67;14.63;;;8.10;96.50;;;8.46;68.62;97949.66;5026554;28;20068;-49
2021/10/17 01:25:19;;;;;;;33.07;14.70;;;8.20;96.70;;;8.50;68.87;97944.94;5027474;28;20061;-53
2021/10/17 01:27:47;;;;;;;38.30;14.90;;;8.20;96.50;;;8.49;68.58;97940.59;5027314;28;20037;-52
2021/10/17 01:30:17;;;;;;;23.63;14.63;;;8.20;96.30;;;8.40;68.60;97939.59;5027831;28;20071;-53
2021/10/17 01:32:48;;;;;;;21.73;12.70;;;8.00;95.90;;;8.33;68.32;97941.13;5027724;28;20053;-52
2021/10/17 01:35:16;;;;;;;23.30;13.40;;;7.90;96.30;;;8.28;68.31;97941.56;5026960;28;20087;-52
2021/10/17 01:37:44;;;;;;;22.77;13.57;;;7.80;96.30;;;8.27;68.56;97933.72;5028303;28;20625;-52
2021/10/17 01:40:13;;;;;;;28.13;16.00;;;7.80;96.70;;;8.27;68.33;97933.72;5027073;28;20057;-53
2021/10/17 01:42:41;;;;;;;24.37;13.97;;;7.90;96.90;;;8.26;68.48;97932.91;5043252;28;20061;-53
2021/10/17 01:45:10;;;;;;;34.33;15.57;;;7.80;96.60;;;8.24;68.45;97934.03;5042858;28;20061;-51
2021/10/17 01:47:46;;;;;;;29.70;16.60;;;7.80;96.90;;;8.25;68.29;97933.03;5026425;28;20045;-52
2021/10/17 01:50:17;;;;;;;32.80;16.33;;;7.80;96.90;;;8.22;68.39;97928.84;5028839;28;20348;-50
2021/10/17 01:52:46;;;;;;;39.63;15.97;;;7.80;96.70;;;8.22;68.61;97933.28;5012769;28;20056;-52
2021/10/17 01:55:14;;;;;;;38.37;15.87;;;7.80;96.60;;;8.19;68.66;97931.78;5004642;28;20049;-52
2021/10/17 01:57:42;;;;;;;26.03;13.47;;;7.80;95.70;;;8.17;68.32;97925.78;5007103;28;20054;-50
2021/10/17 02:00:14;;;;;;;34.23;15.27;;;7.70;96.50;;;8.13;68.59;97929.69;5005377;28;20050;-51
2021/10/17 02:02:46;;;;;;;33.60;14.63;;;7.70;96.40;;;8.06;68.16;97933.84;4990971;28;20062;-50
2021/10/17 02:05:21;;;;;;;26.00;14.83;;;7.60;96.00;;;8.01;68.52;97936.09;5007711;28;20322;-54
2021/10/17 02:07:50;;;;;;;29.40;14.67;;;7.60;96.30;;;7.98;68.22;97931.88;5008340;28;20059;-50
2021/10/17 02:10:19;;;;;;;31.63;13.83;;;7.50;96.60;;;7.93;68.63;97936.78;5007710;28;20496;-54
2021/10/17 02:12:46;;;;;;;29.53;15.27;;;7.50;96.30;;;7.89;68.62;97930.09;5005435;28;20562;-54
2021/10/17 02:15:15;;;;;;;57.37;15.47;;;7.50;96.90;;;7.89;68.63;97930.09;5005102;28;20057;-53
2021/10/17 02:17:44;;;;;;;29.50;13.30;;;7.50;96.80;;;7.89;68.86;97925.63;5008160;28;20062;-51
2021/10/17 02:20:13;;;;;;;27.27;13.70;;;7.50;96.50;;;7.89;68.49;97924.78;5008120;28;20088;-55
2021/10/17 02:22:42;;;;;;;26.30;13.13;;;7.50;96.30;;;7.87;68.69;97922.25;5006740;28;20061;-53
2021/10/17 02:25:11;;;;;;;24.03;14.27;;;7.50;96.00;;;7.86;68.48;97915.28;5006787;28;20061;-54
2021/10/17 02:27:39;;;;;;;21.10;14.60;;;7.50;95.70;;;7.81;68.01;97920.16;5007201;28;20065;-54
2021/10/17 02:30:09;;;;;;;22.40;14.47;;;7.40;95.40;;;7.79;68.72;97923.91;5006674;28;20257;-53
2021/10/17 02:32:41;;;;;;;20.83;13.90;;;7.40;95.70;;;7.79;68.30;97923.91;5005999;28;20076;-51
2021/10/17 02:35:29;;;;;;;20.53;14.13;;;7.30;95.70;;;7.78;68.19;97924.91;5021129;28;20360;-50
2021/10/17 02:37:57;;;;;;;18.60;12.10;;;7.30;95.30;;;7.76;68.44;97926.84;5006839;28;20295;-53
2021/10/17 02:40:30;;;;;;;21.92;12.55;;;7.30;95.20;;;7.77;68.46;97931.16;5006921;28;20064;-52
2021/10/17 02:43:00;;;;;;;18.27;12.63;;;7.30;94.90;;;7.74;68.40;97926.16;5005859;28;20067;-49
2021/10/17 02:45:28;;;;;;;16.67;11.07;;;7.30;94.70;;;7.68;68.07;97923.06;5006021;28;20057;-49
2021/10/17 02:47:56;;;;;;;26.30;11.13;;;7.20;94.00;;;7.64;67.58;97926.13;5007062;28;20081;-52
2021/10/17 02:50:24;;;;;;;14.77;9.77;;;7.20;93.40;;;7.56;67.61;97926.81;5007410;28;20060;-54
2021/10/17 02:52:51;;;;;;;14.47;9.83;;;7.00;94.20;;;7.51;67.29;97923.72;5006558;28;20058;-51
2021/10/17 02:55:23;;;;;;;14.33;10.10;;;7.00;93.80;;;7.48;67.71;97926.63;5006762;28;20049;-51
2021/10/17 02:57:51;;;;;;;20.77;10.40;;;7.00;94.00;;;7.45;68.05;97922.44;5005454;28;20062;-52
2021/10/17 03:00:21;;;;;;;21.40;11.60;;;6.90;93.80;;;7.42;67.61;97927.16;5005934;28;20366;-53
2021/10/17 03:02:52;;;;;;;21.27;10.80;;;6.80;94.50;;;7.36;67.83;97925.06;5003799;28;20061;-53
2021/10/17 03:05:20;;;;;;;23.63;10.83;;;6.80;95.50;;;7.30;67.89;97926.44;5006624;28;20058;-54
2021/10/17 03:07:49;;;;;;;28.23;12.47;;;6.70;96.20;;;7.30;68.23;97927.25;5005616;28;20050;-51
2021/10/17 03:10:17;;;;;;;40.03;13.33;;;6.80;96.70;;;7.30;68.21;97929.91;5007816;28;20058;-50
2021/10/17 03:12:46;;;;;;;30.27;14.03;;;6.80;96.60;;;7.30;68.78;97927.25;5004879;28;20052;-52
2021/10/17 03:15:20;;;;;;;31.73;14.50;;;6.90;97.00;;;7.29;68.62;97919.47;5006047;28;20068;-51
2021/10/17 03:17:48;;;;;;;31.77;12.50;;;6.90;97.20;;;7.31;68.77;97917.53;5006888;28;20056;-51
2021/10/17 03:20:16;;;;;;;33.33;12.93;;;6.90;97.10;;;7.31;68.74;97914.88;5006779;28;20058;-51
2021/10/17 03:22:46;;;;;;;59.70;15.20;;;7.00;97.20;;;7.26;68.94;97920.56;5005194;28;20461;-52
2021/10/17 03:25:15;;;;;;;31.53;13.33;;;6.80;96.90;;;7.29;69.10;97915.00;5004399;28;20054;-49
2021/10/17 03:27:46;;;;;;;54.53;15.23;;;6.90;97.60;;;7.29;69.20;97911.53;5007354;28;20054;-50
2021/10/17 03:30:23;;;;;;;44.93;13.90;;;6.90;97.40;;;7.16;69.37;97913.56;5021609;28;20068;-54
2021/10/17 03:32:52;;;;;;;113.80;19.77;;;6.70;97.70;;;7.06;69.03;97914.34;5003540;28;20056;-49
2021/10/17 03:35:20;;;;;;;104.53;16.60;;;6.50;98.50;;;7.07;69.50;97917.81;4990176;28;20056;-51
2021/10/17 03:37:48;;;;;;;49.47;14.77;;;6.60;99.00;;;7.04;69.72;97915.47;4987723;28;20402;-50
2021/10/17 03:40:17;;;;;;;66.07;16.90;;;6.50;99.10;;;7.05;69.34;97911.81;5021242;28;20073;-52
2021/10/17 03:42:46;;;;;;;69.30;14.40;;;6.60;99.50;;;7.08;69.65;97914.22;5003703;28;20060;-51
2021/10/17 03:45:14;;;;;;;107.23;17.10;;;6.60;99.50;;;7.07;69.16;97916.00;5005005;28;20046;-49
2021/10/17 03:47:42;;;;;;;54.33;14.13;;;6.60;98.50;;;7.02;69.47;97914.75;5005519;28;20042;-51
2021/10/17 03:50:10;;;;;;;36.93;13.97;;;6.50;98.70;;;6.96;69.47;97915.25;5005078;28;20053;-50
2021/10/17 03:52:38;;;;;;;60.37;14.27;;;6.50;99.30;;;6.97;69.29;97915.13;5006201;28;20057;-50
2021/10/17 03:55:08;;;;;;;76.87;18.10;;;6.50;99.70;;;6.97;69.55;97916.94;5022821;28;20258;-49
2021/10/17 03:57:36;;;;;;;39.07;14.83;;;6.50;98.90;;;6.98;69.45;97919.47;5004134;28;20068;-49
2021/10/17 04:00:07;;;;;;;37.97;15.07;;;6.40;99.40;;;7.00;70.18;97914.88;5004783;28;20054;-49
2021/10/17 04:02:39;;;;;;;45.00;13.48;;;6.60;99.60;;;6.94;70.38;97919.84;5005464;28;20056;-48
2021/10/17 04:05:09;;;;;;;85.10;13.63;;;6.50;98.60;;;6.95;69.47;97916.25;5020269;28;20049;-51
2021/10/17 04:07:39;;;;;;;40.83;12.53;;;6.40;99.20;;;6.97;69.79;97914.31;5022024;28;20383;-53
2021/10/17 04:10:08;;;;;;;33.30;12.10;;;6.50;99.50;;;6.97;70.02;97914.31;5005070;28;20064;-52
2021/10/17 04:12:37;;;;;;;40.47;12.00;;;6.60;99.00;;;6.98;69.98;97915.97;5004268;28;20352;-53
2021/10/17 04:15:08;;;;;;;52.90;12.80;;;6.60;98.80;;;6.97;69.99;97906.34;5006031;28;20052;-51
2021/10/17 04:17:41;;;;;;;81.47;14.83;;;6.60;99.00;;;6.99;70.09;97913.19;5004162;28;20350;-50
2021/10/17 04:20:10;;;;;;;48.87;14.10;;;6.60;99.10;;;7.02;70.32;97906.81;5005106;28;20066;-53
2021/10/17 04:22:40;;;;;;;35.40;10.77;;;6.70;98.50;;;6.98;69.89;97915.97;4988830;28;20065;-53
2021/10/17 04:25:09;;;;;;;59.10;14.10;;;6.50;97.70;;;6.93;70.13;97913.72;5004581;28;20076;-53
2021/10/17 04:27:37;;;;;;;53.00;14.27;;;6.50;99.30;;;6.94;69.75;97912.75;5003528;28;20058;-51
2021/10/17 04:30:08;;;;;;;53.77;13.17;;;6.50;99.30;;;6.95;69.88;97921.53;5004978;28;20357;-50
2021/10/17 04:32:35;;;;;;;74.67;14.20;;;6.50;99.40;;;6.89;70.02;97912.31;5006414;28;20064;-52
2021/10/17 04:35:04;;;;;;;99.97;16.60;;;6.40;98.30;;;6.87;70.09;97920.38;5008490;28;20054;-49
2021/10/17 04:37:32;;;;;;;83.00;14.10;;;6.40;99.30;;;6.89;70.15;97917.59;5007466;28;20394;-51
2021/10/17 04:40:02;;;;;;;95.60;14.77;;;6.50;99.50;;;6.86;70.16;97920.50;5010542;28;20723;-53
2021/10/17 04:42:29;;;;;;;98.27;16.53;;;6.40;98.80;;;6.85;70.27;97916.19;4991797;28;20080;-50
2021/10/17 04:44:59;;;;;;;74.93;13.87;;;6.40;98.90;;;6.83;70.49;97911.03;5008143;28;20597;-51
2021/10/17 04:47:28;;;;;;;77.97;17.13;;;6.40;99.80;;;6.84;70.42;97912.72;5007728;28;20056;-52
2021/10/17 04:49:56;;;;;;;40.93;14.63;;;6.40;99.90;;;6.87;70.47;97909.78;5008871;28;20058;-52
2021/10/17 04:52:23;;;;;;;44.67;13.30;;;6.50;99.50;;;6.89;70.67;97905.19;5009202;28;20042;-52
2021/10/17 04:54:51;;;;;;;65.73;12.23;;;6.50;99.60;;;6.92;70.66;97906.78;5008579;28;20050;-53
2021/10/17 04:57:22;;;;;;;51.73;15.17;;;6.50;99.20;;;6.90;70.38;97898.94;5008846;28;20405;-50
2021/10/17 04:59:51;;;;;;;56.83;12.80;;;6.50;99.20;;;6.95;70.55;97897.72;5008696;28;20046;-51
2021/10/17 05:02:19;;;;;;;42.13;12.13;;;6.60;99.20;;;6.96;70.54;97902.03;5008969;28;20064;-51
2021/10/17 05:04:47;;;;;;;78.47;15.40;;;6.60;98.70;;;6.99;70.47;97899.13;5006443;28;20046;-52
2021/10/17 05:07:17;;;;;;;104.43;18.33;;;6.60;98.90;;;6.89;70.44;97902.56;5007739;28;20058;-54
2021/10/17 05:09:45;;;;;;;77.70;13.73;;;6.40;98.60;;;6.90;70.30;97901.59;5025753;28;20385;-50
2021/10/17 05:12:13;;;;;;;62.80;16.67;;;6.50;99.30;;;6.89;70.55;97901.72;5007355;28;20068;-52
2021/10/17 05:14:41;;;;;;;86.50;14.13;;;6.50;98.90;;;6.89;70.21;97905.19;5009567;28;20251;-50
2021/10/17 05:17:10;;;;;;;141.47;19.83;;;6.50;98.20;;;6.85;70.29;97902.97;5024303;28;20064;-52
2021/10/17 05:19:38;;;;;;;58.07;14.00;;;6.40;98.50;;;6.78;70.34;97905.28;5007388;28;20062;-50
2021/10/17 05:22:06;;;;;;;81.57;15.17;;;6.30;98.60;;;6.69;70.75;97898.97;5007225;28;20072;-54
2021/10/17 05:24:35;;;;;;;45.10;11.87;;;6.10;99.10;;;6.70;70.77;97899.81;5006514;28;20473;-52
2021/10/17 05:27:03;;;;;;;37.70;12.77;;;6.20;99.90;;;6.72;70.49;97897.03;5007655;28;20515;-52
2021/10/17 05:29:31;;;;;;;32.57;11.83;;;6.20;99.50;;;6.72;70.44;97894.38;5009047;28;20052;-54
2021/10/17 05:32:00;;;;;;;34.50;12.27;;;6.30;99.60;;;6.75;70.29;97910.03;5005932;28;20062;-51
2021/10/17 05:34:27;;;;;;;17.90;10.40;;;6.30;99.80;;;6.73;70.02;97899.56;5007475;28;20058;-49
2021/10/17 05:36:56;;;;;;;46.47;10.37;;;6.30;98.60;;;6.69;69.98;97904.28;5007650;28;20056;-52
2021/10/17 05:39:27;;;;;;;15.77;8.77;;;6.20;98.10;;;6.71;69.90;97912.09;5008836;28;20068;-54
2021/10/17 05:41:56;;;;;;;15.90;8.50;;;6.20;99.80;;;6.70;70.23;97908.56;5006480;28;20053;-54
2021/10/17 05:44:24;;;;;;;22.37;9.30;;;6.20;97.80;;;6.67;70.09;97908.84;5007770;28;20053;-51
2021/10/17 05:46:52;;;;;;;17.57;9.57;;;6.20;97.80;;;6.54;70.32;97913.50;5007942;28;20512;-46
2021/10/17 05:49:20;;;;;;;10.93;8.33;;;6.00;97.70;;;6.50;69.92;97912.91;5007959;28;20062;-48
2021/10/17 05:51:48;;;;;;;19.93;9.53;;;6.00;99.40;;;6.53;70.62;97913.63;5005661;28;20056;-48
2021/10/17 05:54:16;;;;;;;13.07;7.70;;;6.00;98.60;;;6.52;70.16;97912.78;5005974;28;20053;-48
2021/10/17 05:56:46;;;;;;;10.80;7.23;;;6.00;99.10;;;6.57;69.84;97917.69;5006791;28;20128;-47
2021/10/17 05:59:14;;;;;;;27.13;9.97;;;6.10;98.30;;;6.54;70.33;97925.91;5007387;28;20222;-49
2021/10/17 06:01:41;;;;;;;27.90;9.83;;;6.00;97.10;;;6.34;69.86;97932.84;5006348;28;20063;-47
2021/10/17 06:04:15;;;;;;;11.07;8.02;;;5.80;98.30;;;6.22;69.79;97937.34;5007001;28;20058;-47
2021/10/17 06:07:05;;;;;;;24.23;9.13;;;5.70;99.90;;;6.27;70.16;97943.09;5006837;28;20072;-47
2021/10/17 06:09:39;;;;;;;24.93;10.03;;;5.80;99.90;;;6.28;70.29;97945.63;5004966;28;20090;-47
2021/10/17 06:12:08;;;;;;;17.90;9.40;;;5.80;99.90;;;6.36;70.18;97954.69;5004880;28;20260;-46
2021/10/17 06:14:37;;;;;;;21.67;9.47;;;5.90;99.50;;;6.30;70.58;97961.31;5021288;28;20272;-47
2021/10/17 06:17:06;;;;;;;18.20;9.00;;;5.80;99.20;;;6.26;70.83;97957.25;5005737;28;20061;-47
2021/10/17 06:19:35;;;;;;;15.27;9.53;;;5.70;99.90;;;6.30;70.30;97958.69;5005421;28;20392;-47
2021/10/17 06:22:06;;;;;;;20.47;12.03;;;5.80;99.90;;;6.29;70.13;97967.59;5006069;28;20364;-46
2021/10/17 06:24:41;;;;;;;23.70;10.50;;;5.80;99.60;;;6.18;70.60;97970.28;5004225;28;20064;-47
2021/10/17 06:27:09;;;;;;;23.20;11.20;;;5.60;99.90;;;6.15;71.07;97968.75;5006877;28;20053;-50
2021/10/17 06:29:40;;;;;;;17.77;10.00;;;5.60;99.90;;;6.18;71.19;97968.47;5006099;28;20045;-47
2021/10/17 06:32:08;;;;;;;19.67;10.63;;;5.70;99.90;;;6.29;71.26;97975.53;5004743;28;20056;-49
2021/10/17 06:34:40;;;;;;;18.93;10.40;;;5.90;99.90;;;6.30;71.20;97979.84;5006578;28;20245;-46
2021/10/17 06:37:10;;;;;;;18.63;9.23;;;5.90;99.90;;;6.35;70.67;97976.84;5005379;28;20255;-45
2021/10/17 06:39:38;;;;;;;14.93;9.23;;;5.90;99.80;;;6.31;70.64;97979.72;5006181;28;20056;-47
2021/10/17 06:42:12;;;;;;;18.00;9.90;;;5.90;99.60;;;6.33;71.23;97984.06;5006973;28;20049;-47
2021/10/17 06:45:00;;;;;;;12.03;6.57;;;5.90;99.90;;;6.37;70.67;97996.06;5006089;28;20056;-48
2021/10/17 06:47:28;;;;;;;29.27;7.00;;;6.00;99.60;;;6.26;71.30;97995.13;5005646;28;20054;-47
2021/10/17 06:49:56;;;;;;;8.47;5.40;;;5.90;99.80;;;6.13;71.61;97997.09;5004158;28;20546;-47
2021/10/17 06:52:25;;;;;;;11.07;5.80;;;5.80;99.90;;;6.21;71.61;97996.47;5005506;28;20054;-46
2021/10/17 06:54:53;;;;;;;7.03;4.17;;;5.80;99.90;;;6.11;72.17;97999.88;5021923;28;20273;-47
2021/10/17 06:57:21;;;;;;;9.53;5.47;;;5.80;99.90;;;6.22;72.10;97993.72;5005532;28;20256;-47
2021/10/17 06:59:50;;;;;;;6.90;4.30;;;5.90;99.90;;;6.22;71.61;98001.66;5005157;28;20065;-47
2021/10/17 07:02:18;;;;;;;7.37;4.60;;;5.90;99.90;;;6.19;72.74;98006.34;5004896;28;20055;-49
2021/10/17 07:04:47;;;;;;;9.20;4.63;;;5.90;99.90;;;6.13;71.94;98006.81;5006120;28;20069;-48
2021/10/17 07:07:15;;;;;;;8.60;4.93;;;5.90;99.90;;;6.28;71.68;98006.44;5003367;28;20611;-46
2021/10/17 07:09:43;;;;;;;10.10;5.67;;;6.00;99.90;;;6.34;72.34;98004.22;5004586;28;20069;-46
2021/10/17 07:12:20;;;;;;;8.40;5.80;;;6.10;99.90;;;6.29;72.32;98007.25;5003176;28;20068;-47
2021/10/17 07:14:52;;;;;;;24.47;13.60;;;6.10;99.90;;;6.39;72.24;98007.34;5001542;28;20046;-47
2021/10/17 07:17:36;;;;;;;13.80;7.53;;;6.20;99.90;;;6.46;72.66;98008.53;4989623;28;20056;-49
2021/10/17 07:20:12;;;;;;;29.13;16.80;;;6.30;99.90;;;6.60;71.55;98007.38;4989043;28;20068;-47
2021/10/17 07:22:39;;;;;;;12.53;7.33;;;6.40;99.90;;;6.72;71.59;98009.00;5005464;28;20116;-47
2021/10/17 07:25:08;;;;;;;8.63;5.93;;;6.50;99.90;;;6.77;71.84;98006.00;5005663;28;20054;-46
2021/10/17 07:27:36;;;;;;;7.30;5.20;;;6.60;99.40;;;6.83;71.98;98011.59;5003474;28;20056;-45
2021/10/17 07:30:06;;;;;;;7.70;4.97;;;6.70;99.60;;;6.90;71.85;98003.97;5004568;28;20340;-48
2021/10/17 07:32:34;;;;;;;9.93;5.50;;;6.80;99.40;;;6.99;71.62;98002.38;5003855;28;20046;-46
2021/10/17 07:35:04;;;;;;;10.40;5.50;;;6.80;99.20;;;7.04;71.86;98005.47;5004505;28;20045;-48
2021/10/17 07:37:36;;;;;;;9.40;4.70;;;6.90;99.50;;;6.89;72.23;98015.53;5003408;28;20054;-50
2021/10/17 07:40:08;;;;;;;10.90;5.63;;;6.80;99.90;;;7.07;71.80;98011.31;5003952;28;20060;-48
2021/10/17 07:42:40;;;;;;;8.80;5.77;;;6.90;99.90;;;7.20;71.90;98015.59;5004130;28;20251;-46
2021/10/17 07:45:10;;;;;;;11.60;5.37;;;7.00;99.90;;;7.27;72.05;98017.59;5020561;28;20064;-46
2021/10/17 07:47:47;;;;;;;13.30;5.90;;;7.10;99.90;;;7.37;72.13;98020.28;5004212;28;20062;-47
2021/10/17 07:50:16;;;;;;;19.23;6.80;;;7.20;99.90;;;7.48;72.04;98030.81;5005217;28;20050;-47
2021/10/17 07:52:45;;;;;;;16.00;5.30;;;7.30;99.90;;;7.48;72.38;98028.16;4987580;28;20058;-48
2021/10/17 07:55:34;;;;;;;14.30;7.13;;;7.30;99.90;;;7.59;72.00;98027.19;5003806;28;20253;-46
2021/10/17 07:58:05;;;;;;;13.63;6.53;;;7.40;99.90;;;7.67;72.40;98021.25;5001953;28;20076;-49
2021/10/17 08:00:38;;;;;;;14.87;6.53;;;7.50;99.90;;;7.61;72.97;98024.44;5009912;28;20060;-46
2021/10/17 08:03:41;;;;;;;28.83;9.33;;;7.40;99.90;;;7.72;72.37;98024.34;5008412;28;20360;-47
2021/10/17 08:06:34;;;;;;;12.27;7.17;;;7.50;99.90;;;7.78;72.69;98015.00;5012422;28;20064;-46
2021/10/17 08:09:03;;;;;;;38.07;7.73;;;7.60;99.90;;;7.83;72.27;98016.28;5014384;28;20055;-47
2021/10/17 08:11:32;;;;;;;17.80;6.87;;;7.70;99.90;;;7.72;73.83;98019.03;5008564;28;20041;-46
2021/10/17 08:14:04;;;;;;;14.47;6.73;;;7.60;99.90;;;7.71;73.95;98019.16;5008162;28;20048;-47
2021/10/17 08:16:40;;;;;;;12.63;6.93;;;7.50;99.90;;;7.76;73.05;98020.44;5013336;28;20046;-48
2021/10/17 08:19:08;;;;;;;17.67;7.53;;;7.50;99.90;;;7.69;74.49;98027.25;5017337;28;20056;-47
2021/10/17 08:21:37;;;;;;;21.10;7.97;;;7.40;99.90;;;7.74;73.30;98029.50;5024957;28;20060;-46
2021/10/17 08:24:09;;;;;;;20.17;9.03;;;7.40;99.90;;;7.81;73.35;98031.50;5023866;28;20267;-48
2021/10/17 08:26:42;;;;;;;18.67;8.40;;;7.60;99.90;;;7.91;73.50;98033.31;5008791;28;20053;-48
2021/10/17 08:29:20;;;;;;;16.83;9.00;;;7.80;99.90;;;7.99;73.26;98026.38;5024062;28;20057;-48
2021/10/17 08:31:49;;;;;;;19.33;8.63;;;7.90;99.90;;;8.09;73.59;98043.13;5009938;28;20057;-48
2021/10/17 08:34:17;;;;;;;15.80;8.40;;;8.00;99.90;;;8.07;73.30;98036.31;5023810;28;20057;-48
2021/10/17 08:36:45;;;;;;;14.70;7.97;;;7.90;99.90;;;8.08;73.36;98044.13;5025612;28;20071;-47
2021/10/17 08:39:46;;;;;;;19.37;9.37;;;7.90;99.90;;;8.14;73.14;98042.72;5026332;28;20060;-48
2021/10/17 08:42:16;;;;;;;17.37;8.83;;;7.90;99.90;;;8.19;73.23;98042.34;5023574;28;20517;-47
2021/10/17 08:45:12;;;;;;;15.40;8.33;;;8.00;99.90;;;8.25;73.24;98044.44;5021706;28;20370;-47
2021/10/17 08:47:40;;;;;;;20.23;9.37;;;8.10;99.90;;;8.25;73.23;98042.63;5024183;28;20075;-49
2021/10/17 08:50:09;;;;;;;15.23;9.57;;;8.20;99.90;;;8.29;73.22;98036.06;5006881;28;20057;-48
2021/10/17 08:52:43;;;;;;;18.98;11.55;;;8.30;99.90;;;8.37;73.10;98045.16;5023791;28;20053;-47
2021/10/17 08:55:12;;;;;;;23.00;11.13;;;8.30;99.90;;;8.44;73.03;98043.66;5022064;28;20251;-49
2021/10/17 08:57:41;;;;;;;17.47;9.33;;;8.30;99.90;;;8.47;73.01;98044.22;5024285;28;20082;-48
2021/10/17 09:00:33;;;;;;;16.20;9.50;;;8.30;99.90;;;8.51;72.86;98044.78;5023883;28;20068;-47
2021/10/17 09:03:34;;;;;;;14.50;9.47;;;8.40;99.90;;;8.57;73.04;98038.06;5023581;28;20310;-48
2021/10/17 09:06:27;;;;;;;17.27;9.90;;;8.50;99.90;;;8.56;72.56;98041.72;5007826;28;20056;-48
2021/10/17 09:09:18;;;;;;;16.43;9.90;;;8.40;99.90;;;8.59;72.69;98039.63;5022977;28;20057;-51
2021/10/17 09:11:57;;;;;;;22.93;10.97;;;8.40;99.90;;;8.67;72.85;98028.31;5023528;28;20354;-48
2021/10/17 09:14:30;;;;;;;17.80;9.60;;;8.60;99.90;;;8.73;72.85;98029.56;5024967;28;20455;-47
2021/10/17 09:16:58;;;;;;;17.30;10.47;;;8.60;99.90;;;8.74;72.62;98028.56;5026701;28;20057;-48
2021/10/17 09:19:29;;;;;;;18.37;11.40;;;8.60;99.90;;;8.68;72.81;98032.63;5005196;28;20057;-49
2021/10/17 09:22:10;;;;;;;17.63;10.07;;;8.50;99.90;;;8.72;72.56;98033.19;5004235;28;20286;-49
2021/10/17 09:24:46;;;;;;;18.33;10.20;;;8.50;99.90;;;8.50;73.30;98032.50;5000898;28;20045;-50
2021/10/17 09:27:18;;;;;;;17.53;10.57;;;8.30;99.90;;;8.55;72.90;98032.94;5007993;28;20438;-50
2021/10/17 09:29:52;;;;;;;17.87;9.90;;;8.20;99.90;;;8.59;73.08;98029.00;5007538;28;20054;-51
2021/10/17 09:32:26;;;;;;;16.52;9.98;;;8.30;99.90;;;8.67;72.76;98036.28;5005967;28;20084;-48
2021/10/17 09:35:01;;;;;;;18.98;10.07;;;8.40;99.90;;;8.65;72.41;98036.41;5005498;28;20117;-49
2021/10/17 09:37:45;;;;;;;16.23;9.93;;;8.40;99.90;;;8.69;72.71;98033.50;5001300;28;20260;-48
2021/10/17 09:40:33;;;;;;;19.17;10.43;;;8.40;99.90;;;8.76;72.79;98035.44;5010746;28;20060;-50
2021/10/17 09:43:23;;;;;;;18.83;11.03;;;8.50;99.90;;;8.82;72.66;98028.72;5010377;28;20037;-48
2021/10/17 09:46:14;;;;;;;22.83;12.90;;;8.60;99.90;;;8.81;72.68;98027.88;4999257;28;20061;-48
2021/10/17 09:48:43;;;;;;;21.20;12.60;;;8.60;99.90;;;8.83;72.91;98025.91;5006582;28;20049;-48
2021/10/17 09:51:29;;;;;;;15.90;10.47;;;8.60;99.90;;;8.90;72.58;98023.56;5007636;28;20398;-51
2021/10/17 09:53:59;;;;;;;18.20;12.40;;;8.70;99.90;;;8.97;72.72;98024.66;5008149;28;20056;-48
2021/10/17 09:56:29;;;;;;;18.70;11.20;;;8.80;99.90;;;9.03;72.55;98015.28;5006426;28;20050;-51
2021/10/17 09:59:06;;;;;;;19.77;11.10;;;8.90;99.90;;;9.09;72.61;98020.00;5006970;28;20058;-49
2021/10/17 10:01:36;;;;;;;16.30;10.43;;;8.90;99.90;;;9.14;72.66;98012.47;5007813;28;20141;-49
2021/10/17 10:04:08;;;;;;;16.93;11.03;;;9.00;99.90;;;9.20;72.55;98019.84;5008310;28;20049;-50
2021/10/17 10:06:36;;;;;;;19.50;11.80;;;9.10;99.90;;;9.27;72.41;98018.31;5006955;28;20252;-49
2021/10/17 10:09:09;;;;;;;22.13;12.63;;;9.20;99.90;;;9.34;72.60;98018.56;5006601;28;20050;-51
2021/10/17 10:11:39;;;;;;;17.07;11.30;;;9.20;99.90;;;9.41;72.39;98016.19;5006981;28;20060;-47
2021/10/17 10:14:09;;;;;;;20.87;12.80;;;9.40;99.90;;;9.48;72.23;98019.06;5005000;28;20058;-49
2021/10/17 10:16:37;;;;;;;19.70;11.30;;;9.40;99.90;;;9.52;72.43;98018.66;5006787;28;20308;-50
2021/10/17 10:19:13;;;;;;;16.43;10.47;;;9.50;99.30;;;9.56;72.30;98021.88;5007031;28;20352;-52
2021/10/17 10:21:41;;;;;;;19.60;12.33;;;9.50;99.80;;;9.52;71.81;98026.63;5008475;28;20053;-49
2021/10/17 10:24:12;;;;;;;22.87;12.53;;;9.30;99.90;;;9.42;72.32;98029.31;5007399;28;20056;-50
2021/10/17 10:26:41;;;;;;;22.67;13.20;;;9.20;99.80;;;9.46;72.16;98028.06;5006463;28;20057;-49
2021/10/17 10:29:30;;;;;;;22.30;12.83;;;9.30;99.90;;;9.49;72.15;98028.75;5005847;28;20060;-48
2021/10/17 10:32:03;;;;;;;21.83;12.30;;;9.30;99.90;;;9.48;72.21;98032.38;5004590;28;20425;-47
2021/10/17 10:34:37;;;;;;;22.85;14.05;;;9.30;99.90;;;9.42;72.08;98033.78;5007940;28;20061;-47
2021/10/17 10:37:18;;;;;;;21.00;13.40;;;9.20;99.90;;;9.27;72.21;98030.75;5007471;28;20053;-47
2021/10/17 10:40:03;;;;;;;33.97;16.37;;;9.00;99.90;;;9.25;72.62;98035.38;5006454;28;20053;-49